Airfield :
LOGIN :

Register | Disclaimer

   EN    FR    IT 

 










Legend :    VFR   Marginal VFR   IFR   Intensive IFR   Very Intensive IFR
Visi :
Ceiling :
>= 8 km
>= 3000ft
5 to 8 km
1000 to 3000 ft
1500m to 5 km
500 to 1000 ft
800 to 1500m
200 to 500 ft
< 800m
< 200 ft
Symbols :   Thunderstorms  Fog  Heavy snow  Heavy precipitations  Wind > 20 kt
SIGMETs :     Misc.  Thunderstorms  Icing  Turbulence  Mountain Waves  Volcanic Ashes






- Airport Elevation : 160 ft
- IATA code : FMO


EDDG - Münster Osnabrück Int.

CURRENT METAR :
  • 102350Z 18008KT 140V230 9999 FEW029 BKN031 06/M02 Q1012 NOSIG

EXPIRED METARs :
  • 102320Z 17008KT 140V210 9999 SCT032 06/M02 Q1012 NOSIG
  • 102250Z 17011KT 140V200 9999 SCT042 06/M02 Q1013 NOSIG
  • 102220Z 17011KT 140V200 CAVOK 05/M02 Q1013 TEMPO 17015G25KT
  • 102150Z 16011KT 130V190 CAVOK 05/M02 Q1013 TEMPO 17015G25KT
  • 102120Z 17013KT 130V200 CAVOK 05/M02 Q1014 TEMPO 17015G25KT

TAF TAF EDDG
Valid from the 11 at 00:00 until the 12 at 00:00 UTC


102300Z 1100/1124 18012KT 9999 BKN030
TEMPO 1104/1114 4000 RA
BECMG 1106/1109 18006KT BKN012
TEMPO 1112/1117 BKN007
PROB30
TEMPO 1114/1124 4000 BR
BECMG 1117/1120 BKN025
PROB30
TEMPO 1120/1124 BKN012



MET'MAP, your aeronautical weather chart ! - Copyright ORBIFLY December 2007 - Disclaimer

ORBIFLY MET'MAP TEAM :

Programming & Development : Alexandra Zaïnal
Concept & original design : Baudouin d'Aumeries
Assistance for programming : Marc-Olivier Méhu
Technical & hardware support : Manuel Goepfert

Contact : metmap@orbifly.com




SOURCES & CREDITS :

   NOAA